Time;durP1;ratioP1;P1;durP2;ratioP2;P2;SDS_P1;SDS_P2;PMS_P1;PMS_P2;Temp;Humidity;BMP_temperature;BMP_pressure;BME280_temperature;BME280_humidity;BME280_pressure;Samples;Min_cycle;Max_cycle;Signal;HPM_P1;HPM_P2
2022/08/28 00:00:45;;;;;;;15.63;14.32;;;;;;;21.24;91.40;98590.41;4994083;28;103177;-72
2022/08/28 00:03:13;;;;;;;13.50;12.40;;;;;;;21.31;91.64;98591.31;4994668;28;102937;-71
2022/08/28 00:05:44;;;;;;;12.73;11.63;;;;;;;21.31;91.97;98590.47;4991032;28;102755;-71
2022/08/28 00:08:15;;;;;;;18.70;17.00;;;;;;;21.01;92.25;98584.16;4992791;28;103018;-71
2022/08/28 00:10:43;;;;;;;17.20;15.70;;;;;;;20.77;95.62;98592.41;4995759;28;103358;-71
2022/08/28 00:13:17;;;;;;;14.93;13.55;;;;;;;20.91;95.43;98597.00;4990720;28;102829;-71
2022/08/28 00:15:47;;;;;;;16.77;15.30;;;;;;;20.92;93.99;98595.97;4994812;28;102713;-71
2022/08/28 00:18:16;;;;;;;16.10;14.60;;;;;;;20.93;94.93;98594.13;4993207;28;103304;-71
2022/08/28 00:20:45;;;;;;;11.10;10.20;;;;;;;21.11;94.47;98600.88;4998558;28;103231;-71
2022/08/28 00:23:15;;;;;;;9.20;8.50;;;;;;;21.19;93.63;98600.00;4997589;28;102696;-71
2022/08/28 00:25:43;;;;;;;11.05;10.05;;;;;;;21.30;92.86;98597.75;4995716;28;104037;-71
2022/08/28 00:28:12;;;;;;;10.60;9.60;;;;;;;21.33;92.80;98597.34;4997981;28;103258;-71
2022/08/28 00:30:53;;;;;;;16.90;15.43;;;;;;;20.73;94.16;98596.44;4995427;28;103034;-71
2022/08/28 00:33:24;;;;;;;10.80;9.90;;;;;;;21.00;95.38;98601.28;4996694;28;102997;-71
2022/08/28 00:35:53;;;;;;;12.07;11.18;;;;;;;21.22;93.53;98596.97;4998389;28;103676;-71
2022/08/28 00:38:23;;;;;;;10.75;9.90;;;;;;;21.29;93.20;98596.06;4994306;28;103289;-71
2022/08/28 00:40:54;;;;;;;12.70;11.60;;;;;;;21.35;92.28;98589.97;4996493;28;103316;-71
2022/08/28 00:43:36;;;;;;;14.15;12.73;;;;;;;21.37;91.94;98590.59;4995180;28;102763;-71
2022/08/28 00:46:08;;;;;;;13.68;12.38;;;;;;;21.37;91.84;98595.97;4996953;28;103814;-71
2022/08/28 00:48:36;;;;;;;12.88;11.65;;;;;;;21.38;92.46;98592.28;4996042;28;103264;-71
2022/08/28 00:53:53;;;;;;;11.70;10.73;;;;;;;21.47;91.99;98594.91;4997285;28;103277;-71
2022/08/28 00:56:27;;;;;;;8.98;8.27;;;;;;;21.47;92.52;98581.47;4995555;28;102653;-71
2022/08/28 00:59:01;;;;;;;10.80;10.00;;;;;;;21.49;92.30;98584.78;4996806;28;104157;-71
2022/08/28 01:01:30;;;;;;;17.30;15.60;;;;;;;21.37;91.58;98579.84;4992002;28;103214;-71
2022/08/28 01:03:58;;;;;;;12.90;11.88;;;;;;;21.37;92.46;98577.16;4995193;28;102952;-71
2022/08/28 01:06:26;;;;;;;9.70;8.93;;;;;;;21.42;92.25;98581.19;4992270;28;103285;-71
2022/08/28 01:08:54;;;;;;;14.18;12.77;;;;;;;21.42;91.62;98575.81;4993227;28;103295;-71
2022/08/28 01:11:26;;;;;;;16.40;14.90;;;;;;;21.32;90.80;98576.88;4993648;28;103257;-71
2022/08/28 01:13:55;;;;;;;14.60;13.30;;;;;;;21.30;91.66;98586.16;4996514;28;102878;-71
2022/08/28 01:16:30;;;;;;;11.90;10.90;;;;;;;21.27;92.16;98584.66;4998285;28;103802;-71
2022/08/28 01:19:01;;;;;;;12.65;11.55;;;;;;;21.28;92.45;98580.09;4994919;28;103321;-71
2022/08/28 01:21:36;;;;;;;13.43;12.23;;;;;;;21.27;91.67;98579.28;4997716;28;103162;-71
2022/08/28 01:24:08;;;;;;;13.13;12.05;;;;;;;21.30;92.01;98584.31;4993843;28;102615;-71
2022/08/28 01:26:37;;;;;;;20.40;18.40;;;;;;;20.72;95.37;98590.22;4997410;28;102974;-71
2022/08/28 01:29:07;;;;;;;17.65;16.00;;;;;;;20.78;95.72;98588.69;4992904;28;103994;-71
2022/08/28 01:31:36;;;;;;;18.92;17.23;;;;;;;20.89;95.00;98574.00;4995349;28;103298;-71
2022/08/28 01:34:05;;;;;;;18.77;17.00;;;;;;;20.81;95.44;98582.94;4994901;28;102836;-71
2022/08/28 01:36:33;;;;;;;12.57;11.57;;;;;;;20.95;95.45;98584.88;4993919;28;104073;-71
2022/08/28 01:39:08;;;;;;;11.93;11.03;;;;;;;21.08;94.33;98587.81;4994902;28;103342;-71
2022/08/28 01:41:38;;;;;;;13.97;12.67;;;;;;;21.13;93.42;98588.13;4994734;28;103261;-70
2022/08/28 01:44:06;;;;;;;11.20;10.30;;;;;;;21.19;93.36;98582.00;4994739;28;102597;-71
2022/08/28 01:46:34;;;;;;;11.00;9.95;;;;;;;21.24;92.51;98576.97;4996928;28;103807;-71
2022/08/28 01:49:04;;;;;;;9.63;8.85;;;;;;;21.28;92.30;98580.09;4994865;28;103397;-71
2022/08/28 01:51:31;;;;;;;9.55;8.77;;;;;;;21.29;91.95;98577.25;4996919;28;103560;-71
2022/08/28 01:54:06;;;;;;;13.63;12.45;;;;;;;21.29;91.38;98579.09;4992737;28;102687;-71
2022/08/28 01:56:37;;;;;;;11.30;10.30;;;;;;;21.29;91.98;98582.63;4996341;28;103706;-71
2022/08/28 01:59:08;;;;;;;13.55;12.38;;;;;;;21.28;91.49;98580.09;5010061;27;104627;-71
2022/08/28 02:01:36;;;;;;;18.10;16.33;;;;;;;21.10;91.33;98588.50;4991515;28;103252;-71
2022/08/28 02:04:04;;;;;;;11.48;10.55;;;;;;;21.02;93.51;98590.38;4995052;28;102962;-71
2022/08/28 02:06:33;;;;;;;12.48;11.38;;;;;;;21.00;93.74;98587.84;4996500;28;102770;-71
2022/08/28 02:09:01;;;;;;;12.68;11.68;;;;;;;21.08;93.25;98589.69;4994269;28;103252;-71
2022/08/28 02:11:31;;;;;;;11.88;10.88;;;;;;;21.12;92.90;98594.50;4994490;28;103085;-71
2022/08/28 02:14:01;;;;;;;11.60;10.52;;;;;;;21.13;91.87;98598.88;4989552;28;102712;-71
2022/08/28 02:16:29;;;;;;;11.60;10.70;;;;;;;21.07;92.37;98599.59;4994890;28;102589;-70
2022/08/28 02:18:57;;;;;;;15.40;14.10;;;;;;;21.08;91.94;98595.88;4994872;28;103285;-71
2022/08/28 02:21:25;;;;;;;14.73;13.35;;;;;;;21.02;92.36;98596.59;4995889;28;103309;-71
2022/08/28 02:23:53;;;;;;;18.90;17.20;;;;;;;20.83;93.44;98591.66;4994013;28;102949;-70
2022/08/28 02:26:22;;;;;;;12.10;11.10;;;;;;;20.95;93.08;98589.41;4994908;28;103275;-71
2022/08/28 02:28:51;;;;;;;10.45;9.60;;;;;;;20.99;92.69;98594.25;4995417;28;103302;-71
2022/08/28 02:31:19;;;;;;;20.88;18.90;;;;;;;20.66;92.62;98595.50;4994678;28;103351;-71
2022/08/28 02:33:47;;;;;;;12.07;11.00;;;;;;;20.83;93.30;98597.03;4991141;28;102905;-71
2022/08/28 02:36:16;;;;;;;17.65;16.05;;;;;;;20.89;92.51;98596.31;4996772;28;102666;-70
2022/08/28 02:38:46;;;;;;;11.27;10.38;;;;;;;20.94;92.47;98590.44;4993712;28;103313;-71
2022/08/28 02:41:14;;;;;;;10.03;9.23;;;;;;;20.98;91.76;98597.09;4993852;28;103219;-70
2022/08/28 02:43:42;;;;;;;13.10;12.00;;;;;;;21.00;91.75;98605.81;4994473;28;103012;-71
2022/08/28 02:46:11;;;;;;;9.65;8.85;;;;;;;21.03;91.48;98603.59;4994924;28;103152;-71
2022/08/28 02:48:40;;;;;;;15.80;14.40;;;;;;;21.06;91.15;98597.03;4993361;28;103213;-71
2022/08/28 02:51:11;;;;;;;11.45;10.45;;;;;;;21.04;91.55;98599.91;4993567;28;103345;-71
2022/08/28 02:53:41;;;;;;;10.67;9.83;;;;;;;21.06;91.64;98599.72;4996757;28;102697;-71
2022/08/28 02:56:10;;;;;;;11.55;10.55;;;;;;;21.08;91.46;98595.06;4994089;28;104454;-71
2022/08/28 02:58:39;;;;;;;12.63;11.57;;;;;;;21.11;91.32;98597.41;4995597;28;104005;-71
2022/08/28 03:01:09;;;;;;;16.10;14.70;;;;;;;21.09;91.09;98594.03;4989434;28;104185;-71
2022/08/28 03:03:40;;;;;;;14.60;13.40;;;;;;;21.02;91.93;98596.59;4993753;28;102852;-71
2022/08/28 03:06:10;;;;;;;17.08;15.60;;;;;;;20.86;93.42;98585.94;4992498;28;103583;-71
2022/08/28 03:08:38;;;;;;;11.87;10.80;;;;;;;20.96;93.64;98591.09;4995113;28;103366;-71
2022/08/28 03:11:06;;;;;;;14.63;13.23;;;;;;;21.00;93.10;98589.69;4992650;28;103211;-71
2022/08/28 03:13:34;;;;;;;12.68;11.63;;;;;;;21.08;92.79;98592.38;4991621;28;102696;-71
2022/08/28 03:16:03;;;;;;;11.02;10.07;;;;;;;21.11;92.59;98595.50;4995266;28;102970;-71
2022/08/28 03:18:31;;;;;;;17.65;16.05;;;;;;;21.10;91.78;98593.88;4992962;28;104265;-70
2022/08/28 03:21:01;;;;;;;21.08;19.17;;;;;;;20.68;95.45;98593.44;4995732;28;103207;-71
2022/08/28 03:23:30;;;;;;;14.40;13.20;;;;;;;20.88;94.75;98594.66;4994580;28;102648;-71
2022/08/28 03:26:00;;;;;;;13.70;12.55;;;;;;;21.04;93.49;98593.72;4992830;28;102908;-71
2022/08/28 03:28:32;;;;;;;13.85;12.65;;;;;;;21.10;93.26;98593.88;4995026;28;103255;-71
2022/08/28 03:31:01;;;;;;;15.73;14.43;;;;;;;21.05;93.38;98596.19;4993304;28;103190;-71
2022/08/28 03:33:29;;;;;;;20.80;18.98;;;;;;;21.05;92.32;98598.06;4990765;28;102624;-71
2022/08/28 03:35:58;;;;;;;25.67;23.13;;;;;;;20.59;94.66;98602.56;4996241;28;102653;-71
2022/08/28 03:38:28;;;;;;;21.00;19.10;;;;;;;20.88;95.40;98596.50;4992719;28;103283;-72
2022/08/28 03:40:56;;;;;;;13.05;12.05;;;;;;;21.04;94.51;98599.91;4994609;28;103310;-71
2022/08/28 03:43:26;;;;;;;15.13;13.85;;;;;;;21.15;93.88;98604.06;4993797;28;102743;-70
2022/08/28 03:45:57;;;;;;;17.33;15.80;;;;;;;21.18;92.53;98601.84;4992116;28;103974;-71
2022/08/28 03:48:27;;;;;;;18.65;16.98;;;;;;;21.09;93.56;98602.09;4993687;28;104129;-71
2022/08/28 03:50:55;;;;;;;13.18;12.07;;;;;;;21.20;92.96;98604.34;4996233;28;103464;-70
2022/08/28 03:53:24;;;;;;;16.17;14.75;;;;;;;21.25;92.10;98600.09;4999153;28;102655;-71
2022/08/28 03:55:54;;;;;;;14.50;13.20;;;;;;;21.26;92.12;98600.94;4996900;28;102792;-71
2022/08/28 03:58:23;;;;;;;17.10;15.60;;;;;;;21.21;92.50;98601.50;4995685;28;103276;-71
2022/08/28 04:00:51;;;;;;;23.08;20.98;;;;;;;21.15;92.05;98599.53;5001429;27;103215;-71
2022/08/28 04:03:19;;;;;;;25.50;23.10;;;;;;;20.55;96.38;98609.28;4997164;28;102715;-71
2022/08/28 04:05:50;;;;;;;21.80;19.80;;;;;;;20.63;98.15;98606.56;5001517;27;102815;-71
2022/08/28 04:08:21;;;;;;;27.13;24.42;;;;;;;20.43;98.35;98610.69;4998766;28;103445;-71
2022/08/28 04:10:50;;;;;;;24.60;22.35;;;;;;;20.54;98.44;98607.63;4995050;28;103014;-71
2022/08/28 04:13:20;;;;;;;20.17;18.45;;;;;;;20.82;97.18;98606.13;4996474;28;102650;-71
2022/08/28 04:15:56;;;;;;;14.13;12.88;;;;;;;21.04;95.69;98605.28;4998439;28;104332;-71
2022/08/28 04:18:24;;;;;;;19.58;17.88;;;;;;;21.09;94.52;98605.59;4998203;28;103389;-71
2022/08/28 04:21:01;;;;;;;23.83;21.55;;;;;;;20.89;94.60;98611.59;4997107;28;103172;-71
2022/08/28 04:23:29;;;;;;;20.13;18.38;;;;;;;20.90;94.84;98608.75;4997500;28;102622;-71
2022/08/28 04:25:57;;;;;;;19.17;17.27;;;;;;;20.91;95.56;98610.44;4997403;28;104144;-70
2022/08/28 04:28:27;;;;;;;18.67;17.00;;;;;;;20.93;95.38;98608.38;4996312;28;103982;-70
2022/08/28 04:30:57;;;;;;;19.63;17.93;;;;;;;21.02;93.99;98610.00;4995257;28;103303;-74
2022/08/28 04:33:27;;;;;;;21.07;19.17;;;;;;;21.11;92.90;98614.31;4992205;28;103006;-74
2022/08/28 04:35:55;;;;;;;20.42;18.63;;;;;;;21.05;93.59;98614.19;4997302;28;102606;-74
2022/08/28 04:38:24;;;;;;;23.20;21.00;;;;;;;20.91;93.99;98617.63;4996906;28;103244;-74
2022/08/28 04:40:52;;;;;;;18.80;17.20;;;;;;;21.04;94.19;98610.66;4996604;28;102935;-74
2022/08/28 04:43:20;;;;;;;24.48;22.00;;;;;;;20.76;95.60;98613.03;4997358;28;102674;-74
2022/08/28 04:45:49;;;;;;;24.00;21.70;;;;;;;20.56;97.89;98616.31;4997943;28;102930;-74
2022/08/28 04:48:17;;;;;;;19.83;18.00;;;;;;;20.71;97.14;98620.78;4995171;28;102735;-74
2022/08/28 04:50:47;;;;;;;22.65;20.45;;;;;;;20.78;95.78;98620.91;4998147;28;103178;-74
2022/08/28 04:53:20;;;;;;;23.20;21.00;;;;;;;20.84;94.16;98620.19;4996410;28;102611;-74
2022/08/28 04:55:52;;;;;;;23.98;21.48;;;;;;;20.59;96.84;98621.34;4995616;28;104239;-74
2022/08/28 04:58:22;;;;;;;24.60;22.25;;;;;;;20.23;99.40;98627.19;4999563;28;103259;-74
2022/08/28 05:00:53;;;;;;;25.25;22.60;;;;;;;20.38;98.37;98624.63;4996008;28;103053;-74
2022/08/28 05:03:22;;;;;;;22.93;20.53;;;;;;;20.40;97.15;98627.13;4993656;28;103027;-73
2022/08/28 05:05:52;;;;;;;21.35;19.42;;;;;;;20.49;98.14;98623.41;4997615;28;102663;-74
2022/08/28 05:08:26;;;;;;;20.65;18.77;;;;;;;20.57;97.37;98629.59;4996660;28;103350;-74
2022/08/28 05:10:55;;;;;;;18.40;16.73;;;;;;;20.83;96.40;98629.25;4997417;28;102975;-74
2022/08/28 05:13:23;;;;;;;15.57;14.27;;;;;;;20.92;94.97;98628.19;4994623;28;103247;-74
2022/08/28 05:15:54;;;;;;;21.30;19.42;;;;;;;20.80;94.54;98632.28;4996220;28;102724;-74
2022/08/28 05:18:23;;;;;;;19.55;17.85;;;;;;;20.94;93.37;98636.88;4994175;28;103997;-74
2022/08/28 05:20:50;;;;;;;22.20;20.10;;;;;;;20.57;94.46;98639.47;4993299;28;103538;-73
2022/08/28 05:23:18;;;;;;;16.27;14.87;;;;;;;20.76;95.85;98634.50;4996644;28;102878;-74
2022/08/28 05:25:54;;;;;;;22.80;20.40;;;;;;;20.56;95.86;98627.06;4993855;28;102767;-73
2022/08/28 05:28:24;;;;;;;17.17;15.60;;;;;;;20.73;95.48;98636.69;4995059;28;103382;-73
2022/08/28 05:30:53;;;;;;;13.48;12.35;;;;;;;20.98;93.67;98638.22;4993574;28;103240;-73
2022/08/28 05:33:24;;;;;;;19.53;17.70;;;;;;;20.85;92.69;98637.97;4994618;28;102999;-73
2022/08/28 05:35:52;;;;;;;22.23;20.17;;;;;;;20.47;95.33;98646.88;4992990;28;103934;-73
2022/08/28 05:38:20;;;;;;;19.23;17.45;;;;;;;20.81;95.56;98647.38;4993962;28;103510;-73
2022/08/28 05:40:49;;;;;;;17.83;16.13;;;;;;;20.83;94.82;98635.47;4996539;28;103228;-73
2022/08/28 05:43:17;;;;;;;20.20;18.20;;;;;;;20.92;94.11;98638.09;4995822;28;102881;-73
2022/08/28 05:45:45;;;;;;;17.05;15.57;;;;;;;21.07;93.91;98652.44;4993603;28;102833;-73
2022/08/28 05:48:15;;;;;;;19.05;17.35;;;;;;;20.90;93.44;98643.66;4996729;28;103218;-73
2022/08/28 05:50:43;;;;;;;19.75;17.75;;;;;;;20.54;94.89;98650.56;4994549;28;103287;-73
2022/08/28 05:53:16;;;;;;;19.58;17.77;;;;;;;20.51;96.69;98650.91;4992951;28;103258;-73
2022/08/28 05:55:45;;;;;;;19.13;17.30;;;;;;;20.39;95.91;98655.81;4994024;28;104658;-73
2022/08/28 05:58:33;;;;;;;19.40;17.60;;;;;;;20.42;96.19;98650.09;4996651;28;104018;-73
2022/08/28 06:01:11;;;;;;;16.52;15.07;;;;;;;20.76;94.20;98649.78;4994039;28;103739;-73
2022/08/28 06:03:44;;;;;;;20.73;18.55;;;;;;;20.04;98.50;98656.25;4993178;28;102825;-73
2022/08/28 06:06:13;;;;;;;19.30;17.40;;;;;;;20.38;98.07;98656.81;4996074;28;102725;-73
2022/08/28 06:08:41;;;;;;;17.63;15.83;;;;;;;20.48;96.99;98661.97;4993685;28;103551;-73
2022/08/28 06:11:27;;;;;;;19.42;17.52;;;;;;;19.93;96.87;98660.09;4992972;28;103164;-73
2022/08/28 06:14:00;;;;;;;18.55;16.75;;;;;;;20.18;97.63;98659.03;4995948;28;102720;-73
2022/08/28 06:16:30;;;;;;;18.67;16.70;;;;;;;19.97;97.36;98657.91;4996274;28;102918;-72
2022/08/28 06:19:00;;;;;;;18.40;16.60;;;;;;;19.99;96.77;98667.47;4993748;28;103325;-73
2022/08/28 06:21:32;;;;;;;17.27;15.57;;;;;;;20.30;96.82;98666.72;5011520;28;103278;-73
2022/08/28 06:24:00;;;;;;;17.43;15.53;;;;;;;20.37;95.10;98659.69;4994504;28;102922;-73
2022/08/28 06:26:28;;;;;;;17.65;15.95;;;;;;;20.23;95.55;98654.00;4995181;28;103186;-71
2022/08/28 06:29:00;;;;;;;18.52;16.77;;;;;;;20.30;95.30;98659.53;4989785;28;103450;-73
2022/08/28 06:31:28;;;;;;;18.45;16.02;;;;;;;20.38;93.96;98666.72;4992456;28;103925;-73
2022/08/28 06:34:01;;;;;;;16.45;14.82;;;;;;;20.64;93.62;98667.28;4989486;28;102806;-73
2022/08/28 06:36:32;;;;;;;16.85;15.25;;;;;;;20.71;94.57;98674.47;5009234;27;103049;-73
2022/08/28 06:39:03;;;;;;;17.40;15.67;;;;;;;20.90;93.53;98669.66;4994952;28;103361;-72
2022/08/28 06:41:31;;;;;;;18.30;16.50;;;;;;;20.76;94.09;98671.25;4992149;28;103063;-69
2022/08/28 06:44:00;;;;;;;18.17;16.27;;;;;;;20.71;91.59;98676.31;4995667;28;103058;-79
2022/08/28 06:46:32;;;;;;;16.33;14.82;;;;;;;21.07;90.37;98681.97;4996360;28;103905;-79
2022/08/28 06:49:01;;;;;;;17.52;15.82;;;;;;;20.78;93.53;98682.63;4993807;28;104592;-79
2022/08/28 06:51:30;;;;;;;18.27;16.42;;;;;;;21.01;92.04;98686.22;4996356;28;103413;-79
2022/08/28 06:53:58;;;;;;;15.60;14.10;;;;;;;20.96;93.77;98688.59;4995381;28;102894;-79
2022/08/28 06:56:26;;;;;;;16.98;15.35;;;;;;;20.68;92.36;98684.72;4996588;28;103949;-78
2022/08/28 06:58:56;;;;;;;16.38;14.77;;;;;;;20.60;92.40;98684.75;4993548;28;103259;-79
2022/08/28 07:01:27;;;;;;;15.90;14.30;;;;;;;20.13;94.05;98690.91;4995659;28;103196;-79
2022/08/28 07:03:59;;;;;;;16.20;14.60;;;;;;;20.60;91.71;98690.13;4994075;28;102710;-78
2022/08/28 07:06:32;;;;;;;18.05;16.25;;;;;;;20.60;91.98;98692.81;4993969;28;104076;-78
2022/08/28 07:09:00;;;;;;;17.85;16.10;;;;;;;20.57;92.37;98690.47;4993452;28;103654;-78
2022/08/28 07:11:31;;;;;;;17.33;15.63;;;;;;;20.70;92.26;98698.78;4995963;28;103217;-78
2022/08/28 07:14:00;;;;;;;16.53;14.93;;;;;;;20.79;91.72;98697.75;4993917;28;102842;-78
2022/08/28 07:16:36;;;;;;;17.33;14.82;;;;;;;21.12;90.25;98701.94;4995809;28;102753;-78
2022/08/28 07:19:06;;;;;;;15.75;14.20;;;;;;;21.12;89.74;98704.63;4992756;28;103944;-79
2022/08/28 07:21:40;;;;;;;15.13;13.63;;;;;;;21.02;88.01;98706.69;4994415;28;103210;-79
2022/08/28 07:24:09;;;;;;;14.50;13.05;;;;;;;20.73;90.18;98709.19;4995199;28;102807;-73
2022/08/28 07:26:40;;;;;;;15.43;13.82;;;;;;;20.70;91.32;98707.69;4990156;28;103050;-72
2022/08/28 07:29:08;;;;;;;14.98;13.52;;;;;;;20.67;90.87;98709.88;4992125;28;104241;-73
2022/08/28 07:31:43;;;;;;;14.90;13.38;;;;;;;20.72;90.92;98708.34;4990986;28;103282;-73
2022/08/28 07:34:14;;;;;;;16.23;14.40;;;;;;;20.23;92.28;98704.97;4990967;28;102733;-73
2022/08/28 07:36:44;;;;;;;12.73;11.63;;;;;;;21.07;89.63;98711.53;4991750;28;102907;-73
2022/08/28 07:39:13;;;;;;;14.57;13.27;;;;;;;20.78;88.81;98718.38;4992161;28;105274;-73
2022/08/28 07:41:44;;;;;;;11.75;10.55;;;;;;;21.19;90.27;98713.66;4991470;28;103432;-73
2022/08/28 07:47:05;;;;;;;14.82;13.32;;;;;;;21.40;87.79;98729.13;4975437;28;103081;-73
2022/08/28 07:49:39;;;;;;;14.37;13.07;;;;;;;21.20;89.95;98731.44;4982943;28;103252;-73
2022/08/28 07:52:10;;;;;;;14.10;12.70;;;;;;;21.38;86.03;98732.03;4981630;28;103187;-72
2022/08/28 07:54:39;;;;;;;15.93;14.35;;;;;;;21.12;86.62;98731.50;4979637;28;103642;-73
2022/08/28 07:57:09;;;;;;;16.08;14.02;;;;;;;20.78;88.83;98728.28;4985381;28;103364;-73
2022/08/28 07:59:38;;;;;;;13.57;12.38;;;;;;;21.52;87.00;98735.78;4983515;28;103630;-73
2022/08/28 08:02:12;;;;;;;12.67;11.47;;;;;;;21.87;84.55;98728.97;4980653;28;103183;-78
2022/08/28 08:04:40;;;;;;;13.80;12.43;;;;;;;21.60;86.54;98733.03;4981684;28;103021;-79
2022/08/28 08:07:11;;;;;;;15.57;13.90;;;;;;;21.48;87.27;98737.13;4986723;28;102759;-79
2022/08/28 08:09:41;;;;;;;15.73;14.13;;;;;;;21.50;85.60;98739.66;4986354;28;103520;-79
2022/08/28 08:12:11;;;;;;;15.45;13.85;;;;;;;21.71;86.41;98737.13;4981034;28;103290;-80
2022/08/28 08:14:41;;;;;;;12.93;11.73;;;;;;;21.97;86.36;98742.16;4982100;28;103147;-79
2022/08/28 08:17:10;;;;;;;14.70;13.13;;;;;;;22.14;83.45;98736.47;4981951;28;104032;-80
2022/08/28 08:19:39;;;;;;;13.98;12.63;;;;;;;22.39;82.23;98745.13;4982311;28;104225;-79
2022/08/28 08:22:07;;;;;;;13.82;12.52;;;;;;;22.50;81.03;98745.50;4982630;28;103359;-79
2022/08/28 08:24:40;;;;;;;14.83;13.43;;;;;;;21.82;85.60;98750.16;4966989;27;103446;-79
2022/08/28 08:27:09;;;;;;;13.83;12.53;;;;;;;22.03;83.00;98747.66;4989770;27;104493;-79
2022/08/28 08:29:38;;;;;;;15.57;14.03;;;;;;;21.64;85.45;98755.81;4980537;28;103231;-77
2022/08/28 08:32:09;;;;;;;13.48;12.20;;;;;;;22.34;83.16;98759.09;4985014;28;103187;-77
2022/08/28 08:34:41;;;;;;;15.02;13.60;;;;;;;21.62;85.65;98759.72;4981449;28;103173;-77
2022/08/28 08:37:10;;;;;;;13.33;12.03;;;;;;;22.43;82.63;98759.84;4984789;27;102849;-77
2022/08/28 08:39:41;;;;;;;14.57;13.10;;;;;;;21.47;86.11;98762.38;4985367;28;104469;-77
2022/08/28 08:42:20;;;;;;;14.00;12.68;;;;;;;21.95;84.86;98758.50;4985721;28;103382;-77
2022/08/28 08:44:50;;;;;;;11.73;10.77;;;;;;;22.63;82.98;98763.69;4980054;28;103079;-76
2022/08/28 08:47:26;;;;;;;11.57;10.52;;;;;;;23.53;80.11;98759.69;4982157;27;104607;-77
2022/08/28 08:49:57;;;;;;;12.02;10.77;;;;;;;23.95;77.68;98760.72;4991000;27;103069;-77
2022/08/28 08:52:35;;;;;;;9.85;9.05;;;;;;;24.17;76.19;98757.81;4990073;28;103179;-77
2022/08/28 08:55:14;;;;;;;9.73;8.93;;;;;;;24.28;73.96;98767.25;4986970;28;102964;-77
2022/08/28 08:57:45;;;;;;;13.70;12.33;;;;;;;23.08;75.10;98760.81;4996892;28;104151;-77
2022/08/28 09:00:17;;;;;;;13.55;12.13;;;;;;;22.97;78.20;98766.69;4986115;28;103662;-75
2022/08/28 09:02:51;;;;;;;11.27;10.20;;;;;;;23.65;74.79;98760.88;4986682;28;103686;-77
2022/08/28 09:05:23;;;;;;;12.77;11.67;;;;;;;23.93;73.51;98773.56;4984335;28;102678;-76
2022/08/28 09:07:56;;;;;;;12.15;10.90;;;;;;;24.19;74.75;98776.53;4978106;27;102850;-77
2022/08/28 09:10:35;;;;;;;12.10;11.00;;;;;;;24.47;73.76;98780.09;5003201;28;103285;-77
2022/08/28 09:13:12;;;;;;;10.85;9.85;;;;;;;24.52;72.95;98771.38;5012246;27;103365;-76
2022/08/28 09:15:45;;;;;;;12.32;11.13;;;;;;;24.36;72.74;98772.53;5007531;27;102765;-77
2022/08/28 09:18:21;;;;;;;11.23;10.13;;;;;;;24.53;73.51;98775.75;5030865;27;102877;-76
2022/08/28 09:20:51;;;;;;;11.27;10.27;;;;;;;25.03;72.80;98769.22;5004293;28;103346;-77
2022/08/28 09:23:21;;;;;;;9.63;8.73;;;;;;;26.23;68.31;98770.16;5008543;28;103916;-77
2022/08/28 09:25:54;;;;;;;11.40;10.30;;;;;;;24.32;70.60;98779.34;5002247;27;104581;-77
2022/08/28 09:28:30;;;;;;;11.82;10.82;;;;;;;23.54;72.88;98777.56;5006624;28;102610;-77
2022/08/28 09:31:02;;;;;;;10.20;9.20;;;;;;;24.29;72.53;98779.72;4996506;27;104086;-77
2022/08/28 09:33:39;;;;;;;9.70;8.90;;;;;;;25.03;70.12;98780.03;4995775;28;103187;-76
2022/08/28 09:36:31;;;;;;;8.23;7.32;;;;;;;25.80;68.63;98777.78;4983200;28;102854;-76
2022/08/28 09:39:08;;;;;;;11.30;10.30;;;;;;;24.63;72.25;98779.75;4986844;28;102653;-77
2022/08/28 09:44:31;;;;;;;10.75;9.73;;;;;;;24.35;71.85;98778.94;4984272;28;103275;-77
2022/08/28 09:46:59;;;;;;;12.48;11.20;;;;;;;24.79;68.44;98779.47;4984538;28;102707;-77
2022/08/28 09:49:30;;;;;;;13.38;9.05;;;;;;;26.20;65.83;98774.13;4985438;28;104127;-77
2022/08/28 09:52:00;;;;;;;8.48;7.70;;;;;;;27.10;63.53;98777.94;4986825;28;103275;-77
2022/08/28 09:54:35;;;;;;;8.65;7.88;;;;;;;27.00;63.37;98775.69;4991387;27;103306;-77
2022/08/28 09:57:04;;;;;;;10.43;9.38;;;;;;;24.96;67.20;98774.56;4963595;27;102737;-74
2022/08/28 09:59:32;;;;;;;11.93;9.70;;;;;;;23.73;72.37;98781.47;4981741;28;104071;-77
2022/08/28 10:02:19;;;;;;;10.95;9.75;;;;;;;24.48;69.83;98781.72;4985617;28;103955;-76
2022/08/28 10:05:00;;;;;;;11.60;10.40;;;;;;;24.15;73.77;98786.88;4985009;28;103415;-77
2022/08/28 10:07:37;;;;;;;11.88;10.65;;;;;;;23.92;72.47;98786.22;4986684;28;103329;-76
2022/08/28 10:10:17;;;;;;;11.02;9.93;;;;;;;24.54;71.61;98780.94;4980067;28;103063;-77
2022/08/28 10:13:00;;;;;;;10.50;9.50;;;;;;;24.51;69.55;98781.34;4985953;28;103927;-76
2022/08/28 10:15:37;;;;;;;9.65;8.70;;;;;;;25.22;67.67;98779.25;4983029;27;103342;-76
2022/08/28 10:18:33;;;;;;;6.45;5.95;;;;;;;25.55;65.40;98774.00;4986128;28;102904;-76
2022/08/28 10:21:12;;;;;;;9.38;8.38;;;;;;;25.93;65.16;98775.97;4985325;28;102663;-76
2022/08/28 10:23:55;;;;;;;10.38;9.43;;;;;;;25.06;65.76;98776.91;4981141;28;103267;-76
2022/08/28 10:26:35;;;;;;;9.90;9.00;;;;;;;25.78;66.54;98775.31;4984012;28;104287;-76
2022/08/28 10:29:23;;;;;;;11.23;10.13;;;;;;;26.68;64.23;98780.13;4986021;28;102945;-76
2022/08/28 10:31:59;;;;;;;15.63;14.15;;;;;;;26.77;64.18;98767.16;4983890;28;103939;-75
2022/08/28 10:34:39;;;;;;;9.52;8.63;;;;;;;26.35;62.39;98763.06;4984824;28;103265;-75
2022/08/28 10:37:19;;;;;;;12.00;10.85;;;;;;;24.16;69.42;98775.06;4977992;27;103428;-76
2022/08/28 10:39:53;;;;;;;10.40;9.25;;;;;;;25.24;69.21;98769.91;4996664;27;103084;-76
2022/08/28 10:42:30;;;;;;;9.35;8.50;;;;;;;25.61;68.04;98774.03;4986355;28;103226;-76
2022/08/28 10:45:11;;;;;;;9.80;8.90;;;;;;;25.96;66.60;98766.59;4984062;28;103340;-74
2022/08/28 10:47:49;;;;;;;9.33;8.53;;;;;;;26.06;66.88;98774.28;4988926;28;103165;-76
2022/08/28 10:50:22;;;;;;;10.10;9.20;;;;;;;26.13;66.26;98767.00;4991716;28;102748;-76
2022/08/28 10:52:57;;;;;;;10.48;9.48;;;;;;;26.08;64.36;98777.63;4993317;28;102927;-76
2022/08/28 10:55:31;;;;;;;8.68;7.90;;;;;;;26.80;63.43;98767.63;4994535;28;103655;-76
2022/08/28 10:58:03;;;;;;;9.27;8.40;;;;;;;27.49;62.62;98769.66;4991086;28;103295;-75
2022/08/28 11:00:50;;;;;;;9.77;8.77;;;;;;;27.32;60.57;98769.28;4994044;28;102910;-75
2022/08/28 11:03:21;;;;;;;11.25;10.00;;;;;;;25.74;64.53;98770.53;4992671;28;103347;-76
2022/08/28 11:06:07;;;;;;;10.47;9.40;;;;;;;25.81;66.15;98774.91;4995757;28;103981;-76
2022/08/28 11:08:37;;;;;;;10.65;9.65;;;;;;;24.54;69.52;98780.94;4995083;28;103243;-76
2022/08/28 11:11:11;;;;;;;11.27;10.07;;;;;;;24.56;68.39;98762.66;4995496;28;102852;-76
2022/08/28 11:13:56;;;;;;;10.38;9.48;;;;;;;24.91;68.88;98776.22;4994101;28;103498;-76
2022/08/28 11:16:37;;;;;;;10.35;9.35;;;;;;;25.58;64.53;98774.41;5001073;28;104415;-76
2022/08/28 11:19:54;;;;;;;8.80;7.90;;;;;;;26.55;63.77;98769.31;4993953;28;103393;-76
2022/08/28 11:22:26;;;;;;;7.78;6.97;;;;;;;27.18;60.19;98773.09;4967398;28;102977;-75
2022/08/28 11:25:04;;;;;;;8.25;7.55;;;;;;;26.22;62.33;98771.19;4992962;28;103856;-76
2022/08/28 11:27:38;;;;;;;9.50;8.60;;;;;;;26.23;61.65;98770.16;4992050;28;103374;-76
2022/08/28 11:30:31;;;;;;;9.15;7.80;;;;;;;27.13;59.35;98769.38;4993677;28;103457;-76
2022/08/28 11:33:08;;;;;;;8.63;7.55;;;;;;;27.64;57.57;98767.50;5004541;28;102686;-75
2022/08/28 11:35:43;;;;;;;9.55;8.55;;;;;;;26.08;62.04;98764.09;4995007;28;103149;-75
2022/08/28 11:38:12;;;;;;;10.07;8.80;;;;;;;26.91;61.63;98761.53;4999917;28;103248;-75
2022/08/28 11:40:53;;;;;;;9.88;8.88;;;;;;;25.24;67.32;98766.38;4992805;28;103520;-75